createdAt,value
2023-06-17T00:00:14.622Z,2.15
2023-06-17T00:03:18.089Z,2.13
2023-06-17T00:06:21.685Z,2.00
2023-06-17T00:09:25.750Z,2.08
2023-06-17T00:12:33.251Z,2.05
2023-06-17T00:15:37.257Z,2.10
2023-06-17T00:18:42.436Z,2.00
2023-06-17T00:21:50.751Z,2.30
2023-06-17T00:24:53.953Z,2.08
2023-06-17T00:27:57.131Z,2.00
2023-06-17T00:31:00.573Z,2.30
2023-06-17T00:34:03.986Z,2.10
2023-06-17T00:37:07.223Z,2.00
2023-06-17T00:43:27.824Z,2.35
2023-06-17T00:46:42.865Z,2.45
2023-06-17T00:49:48.305Z,2.10
2023-06-17T00:52:56.673Z,2.50
2023-06-17T00:56:00.213Z,2.75
2023-06-17T00:59:04.907Z,2.13
2023-06-17T01:02:12.275Z,2.38
2023-06-17T01:05:18.340Z,2.00
2023-06-17T01:08:34.480Z,2.53
2023-06-17T01:11:40.165Z,2.00
2023-06-17T01:14:44.100Z,2.20
2023-06-17T01:17:48.366Z,2.38
2023-06-17T01:20:57.073Z,2.33
2023-06-17T01:24:04.311Z,2.30
2023-06-17T01:27:07.598Z,2.42
2023-06-17T01:30:12.183Z,2.70
2023-06-17T01:33:17.261Z,2.33
2023-06-17T01:36:26.302Z,2.20
2023-06-17T01:39:31.584Z,2.30
2023-06-17T01:42:38.331Z,2.28
2023-06-17T01:45:44.736Z,2.25
2023-06-17T01:48:48.322Z,2.75
2023-06-17T01:51:51.714Z,2.30
2023-06-17T01:54:55.412Z,2.70
2023-06-17T01:57:58.521Z,2.55
2023-06-17T02:01:01.979Z,2.33
2023-06-17T02:04:07.780Z,2.85
2023-06-17T02:07:13.150Z,2.70
2023-06-17T02:10:16.762Z,2.50
2023-06-17T02:13:21.184Z,2.40
2023-06-17T02:16:24.941Z,2.67
2023-06-17T02:19:30.176Z,2.70
2023-06-17T02:22:33.892Z,2.37
2023-06-17T02:25:40.993Z,2.42
2023-06-17T02:28:44.924Z,2.92
2023-06-17T02:31:47.971Z,2.67
2023-06-17T02:34:52.003Z,2.47
2023-06-17T02:37:56.877Z,2.70
2023-06-17T02:41:01.048Z,2.72
2023-06-17T02:44:04.339Z,2.67
2023-06-17T02:47:08.216Z,2.72
2023-06-17T02:50:11.825Z,2.67
2023-06-17T02:53:16.563Z,2.60
2023-06-17T02:56:20.265Z,2.95
2023-06-17T02:59:24.639Z,2.42
2023-06-17T03:02:29.312Z,2.70
2023-06-17T03:05:32.624Z,3.03
2023-06-17T03:08:41.371Z,2.97
2023-06-17T03:11:44.928Z,3.00
2023-06-17T03:14:49.031Z,3.13
2023-06-17T03:17:54.951Z,2.42
2023-06-17T03:20:58.758Z,2.65
2023-06-17T03:24:03.077Z,2.67
2023-06-17T03:27:08.365Z,2.60
2023-06-17T03:30:12.477Z,2.83
2023-06-17T03:33:15.989Z,2.35
2023-06-17T03:36:25.935Z,2.85
2023-06-17T03:39:31.082Z,3.10
2023-06-17T03:42:34.767Z,2.40
2023-06-17T03:45:37.864Z,2.40
2023-06-17T03:48:41.549Z,2.70
2023-06-17T03:51:44.921Z,2.88
2023-06-17T03:54:48.184Z,2.83
2023-06-17T03:57:54.547Z,2.70
2023-06-17T04:00:58.682Z,2.72
2023-06-17T04:04:02.814Z,3.03
2023-06-17T04:07:06.893Z,2.25
2023-06-17T04:10:11.846Z,2.57
2023-06-17T04:13:16.078Z,2.28
2023-06-17T04:16:19.471Z,2.50
2023-06-17T04:19:24.844Z,2.60
2023-06-17T04:22:27.838Z,2.47
2023-06-17T04:25:33.883Z,2.97
2023-06-17T04:28:38.408Z,2.60
2023-06-17T04:31:41.953Z,1.92
2023-06-17T04:34:49.290Z,2.20
2023-06-17T04:37:57.021Z,2.13
2023-06-17T04:41:00.339Z,2.27
2023-06-17T04:44:04.560Z,2.38
2023-06-17T04:47:11.089Z,1.90
2023-06-17T04:50:18.890Z,1.48
2023-06-17T04:53:23.245Z,1.83
2023-06-17T04:56:28.164Z,1.70
2023-06-17T04:59:31.665Z,1.63
2023-06-17T05:02:37.851Z,1.42
2023-06-17T05:05:41.019Z,1.52
2023-06-17T05:08:44.416Z,2.13
2023-06-17T05:11:50.580Z,1.80
2023-06-17T05:14:54.178Z,1.58
2023-06-17T05:17:57.476Z,1.77
2023-06-17T05:21:05.114Z,1.65
2023-06-17T05:24:08.609Z,1.50
2023-06-17T05:27:12.585Z,1.73
2023-06-17T05:30:16.313Z,1.70
2023-06-17T05:33:25.746Z,2.03
2023-06-17T05:36:29.235Z,1.52
2023-06-17T05:39:32.473Z,1.80
2023-06-17T05:42:35.911Z,1.67
2023-06-17T05:45:40.747Z,1.92
2023-06-17T05:48:44.417Z,1.40
2023-06-17T05:51:48.200Z,1.65
2023-06-17T05:54:51.807Z,1.80
2023-06-17T05:57:55.601Z,1.40
2023-06-17T06:00:59.276Z,1.85
2023-06-17T06:04:02.745Z,1.70
2023-06-17T06:07:06.715Z,2.00
2023-06-17T06:10:10.001Z,1.65
2023-06-17T06:13:17.564Z,1.40
2023-06-17T06:16:21.773Z,1.63
2023-06-17T06:19:25.418Z,1.95
2023-06-17T06:22:28.717Z,1.55
2023-06-17T06:25:32.179Z,1.90
2023-06-17T06:28:35.429Z,1.43
2023-06-17T06:31:39.204Z,1.95
2023-06-17T06:34:42.963Z,1.73
2023-06-17T06:37:46.366Z,1.80
2023-06-17T06:40:50.045Z,2.03
2023-06-17T06:43:54.022Z,1.87
2023-06-17T06:46:57.511Z,1.73
2023-06-17T06:50:01.304Z,1.95
2023-06-17T06:53:04.966Z,1.80
2023-06-17T06:56:08.370Z,1.60
2023-06-17T06:59:16.128Z,1.60
2023-06-17T07:02:19.680Z,1.88
2023-06-17T07:05:26.181Z,1.95
2023-06-17T07:08:35.832Z,2.00
2023-06-17T07:11:39.884Z,2.13
2023-06-17T07:14:43.491Z,2.03
2023-06-17T07:17:48.654Z,2.13
2023-06-17T07:20:52.170Z,1.83
2023-06-17T07:23:58.536Z,1.67
2023-06-17T07:27:01.748Z,1.58
2023-06-17T07:30:06.701Z,1.83
2023-06-17T07:33:10.196Z,1.55
2023-06-17T07:36:14.232Z,2.00
2023-06-17T07:39:18.017Z,1.98
2023-06-17T07:42:21.596Z,2.08
2023-06-17T07:45:25.397Z,1.80
2023-06-17T07:48:29.226Z,2.28
2023-06-17T07:51:32.586Z,1.98
2023-06-17T07:54:36.958Z,2.20
2023-06-17T07:57:40.837Z,1.70
2023-06-17T08:00:44.108Z,1.80
2023-06-17T08:03:47.318Z,2.03
2023-06-17T08:06:50.567Z,1.63
2023-06-17T08:09:56.968Z,2.20
2023-06-17T08:13:00.046Z,2.42
2023-06-17T08:16:03.801Z,1.70
2023-06-17T08:19:07.425Z,2.00
2023-06-17T08:22:11.741Z,1.60
2023-06-17T08:25:17.928Z,2.08
2023-06-17T08:28:22.473Z,1.65
2023-06-17T08:31:27.554Z,1.70
2023-06-17T08:34:33.669Z,1.98
2023-06-17T08:37:37.196Z,1.83
2023-06-17T08:40:47.098Z,1.60
2023-06-17T08:43:53.233Z,2.30
2023-06-17T08:46:58.750Z,1.93
2023-06-17T08:50:03.877Z,1.98
2023-06-17T08:53:07.704Z,1.90
2023-06-17T08:56:12.439Z,1.88
2023-06-17T08:59:16.053Z,1.77
2023-06-17T09:02:19.479Z,2.00
2023-06-17T09:05:22.938Z,2.00
2023-06-17T09:08:26.581Z,1.83
2023-06-17T09:11:32.169Z,2.03
2023-06-17T09:14:35.764Z,1.80
2023-06-17T09:17:40.278Z,1.90
2023-06-17T09:20:43.362Z,1.92
2023-06-17T09:23:56.274Z,2.03
2023-06-17T09:26:59.563Z,1.83
2023-06-17T09:30:12.103Z,1.80
2023-06-17T09:33:20.022Z,2.00
2023-06-17T09:36:24.285Z,1.83
2023-06-17T09:39:32.327Z,2.05
2023-06-17T09:42:35.726Z,1.55
2023-06-17T09:45:41.527Z,1.67
2023-06-17T09:48:45.888Z,1.80
2023-06-17T09:51:50.258Z,1.70
2023-06-17T09:54:54.739Z,1.60
2023-06-17T09:58:01.205Z,1.63
2023-06-17T10:01:08.011Z,1.90
2023-06-17T10:04:11.196Z,1.60
2023-06-17T10:07:15.895Z,1.67
2023-06-17T10:10:19.889Z,1.42
2023-06-17T10:13:23.962Z,1.48
2023-06-17T10:16:29.965Z,1.40
2023-06-17T10:19:36.142Z,1.67
2023-06-17T10:22:40.910Z,1.88
2023-06-17T10:25:44.300Z,1.58
2023-06-17T10:28:59.770Z,2.00
2023-06-17T10:32:26.104Z,1.40
2023-06-17T10:35:39.124Z,1.30
2023-06-17T10:38:42.364Z,1.90
2023-06-17T10:41:53.084Z,1.40
2023-06-17T10:44:56.171Z,1.50
2023-06-17T10:48:24.403Z,1.60
2023-06-17T10:51:41.007Z,1.47
2023-06-17T10:54:56.777Z,1.65
2023-06-17T10:58:00.135Z,1.50
2023-06-17T11:01:08.962Z,1.60
2023-06-17T11:04:13.525Z,1.40
2023-06-17T11:07:16.882Z,1.43
2023-06-17T11:10:25.879Z,1.50
2023-06-17T11:13:29.382Z,1.30
2023-06-17T11:16:34.055Z,1.80
2023-06-17T11:19:37.333Z,1.55
2023-06-17T11:22:41.315Z,1.60
2023-06-17T11:25:45.940Z,1.38
2023-06-17T11:28:49.967Z,1.65
2023-06-17T11:31:54.553Z,1.50
2023-06-17T11:34:58.025Z,1.50
2023-06-17T11:38:01.243Z,1.40
2023-06-17T11:41:04.387Z,1.55
2023-06-17T11:44:08.220Z,1.60
2023-06-17T11:47:11.668Z,1.20
2023-06-17T11:50:15.439Z,1.48
2023-06-17T11:53:48.191Z,1.50
2023-06-17T11:56:56.127Z,1.30
2023-06-17T12:00:06.100Z,1.70
2023-06-17T12:03:15.806Z,1.38
2023-06-17T12:06:20.762Z,1.38
2023-06-17T12:09:24.163Z,1.77
2023-06-17T12:12:28.467Z,1.33
2023-06-17T12:15:36.749Z,1.42
2023-06-17T12:18:50.243Z,1.45
2023-06-17T12:21:53.549Z,1.80
2023-06-17T12:24:56.653Z,1.87
2023-06-17T12:28:00.312Z,1.50
2023-06-17T12:31:03.937Z,1.90
2023-06-17T12:34:07.904Z,1.60
2023-06-17T12:37:11.334Z,1.52
2023-06-17T12:40:14.501Z,1.47
2023-06-17T12:43:17.744Z,1.75
2023-06-17T12:46:21.494Z,1.60
2023-06-17T12:49:24.638Z,1.85
2023-06-17T12:52:28.792Z,1.60
2023-06-17T12:55:32.173Z,1.37
2023-06-17T12:58:35.748Z,1.60
2023-06-17T13:01:38.917Z,1.25
2023-06-17T13:04:42.157Z,1.45
2023-06-17T13:07:45.231Z,1.10
2023-06-17T13:10:48.815Z,1.30
2023-06-17T13:13:52.518Z,1.45
2023-06-17T13:16:56.106Z,1.35
2023-06-17T13:19:59.677Z,1.40
2023-06-17T13:23:03.140Z,1.60
2023-06-17T13:26:06.273Z,1.27
2023-06-17T13:29:09.716Z,1.45
2023-06-17T13:32:13.370Z,1.10
2023-06-17T13:35:16.848Z,1.25
2023-06-17T13:38:19.912Z,1.20
2023-06-17T13:41:23.228Z,1.50
2023-06-17T13:44:26.469Z,1.38
2023-06-17T13:47:29.561Z,1.60
2023-06-17T13:50:32.560Z,1.45
2023-06-17T13:53:35.605Z,1.42
2023-06-17T13:56:38.833Z,1.23
2023-06-17T13:59:42.160Z,1.38
2023-06-17T14:02:45.372Z,1.27
2023-06-17T14:05:48.889Z,1.40
2023-06-17T14:08:55.395Z,0.95
2023-06-17T14:11:58.825Z,1.97
2023-06-17T14:15:02.269Z,1.45
2023-06-17T14:18:06.093Z,1.40
2023-06-17T14:21:29.862Z,2.10
2023-06-17T14:24:36.771Z,1.70
2023-06-17T14:27:44.132Z,1.67
2023-06-17T14:30:49.652Z,1.75
2023-06-17T14:33:53.125Z,1.70
2023-06-17T14:36:59.934Z,1.67
2023-06-17T14:40:03.266Z,1.92
2023-06-17T14:43:08.426Z,1.90
2023-06-17T14:46:12.469Z,2.00
2023-06-17T14:49:15.563Z,2.05
2023-06-17T14:52:19.918Z,2.17
2023-06-17T14:55:23.443Z,2.08
2023-06-17T14:58:26.976Z,1.90
2023-06-17T15:01:31.644Z,1.80
2023-06-17T15:04:34.771Z,2.00
2023-06-17T15:07:37.904Z,2.13
2023-06-17T15:10:41.009Z,2.10
2023-06-17T15:13:44.108Z,1.60
2023-06-17T15:16:48.840Z,2.00
2023-06-17T15:19:52.116Z,2.20
2023-06-17T15:22:55.624Z,1.90
2023-06-17T15:25:58.820Z,1.85
2023-06-17T15:29:01.992Z,2.00
2023-06-17T15:32:06.065Z,1.70
2023-06-17T15:35:09.341Z,2.03
2023-06-17T15:38:12.673Z,2.05
2023-06-17T15:41:16.327Z,1.90
2023-06-17T15:44:20.205Z,2.30
2023-06-17T15:47:23.457Z,2.50
2023-06-17T15:50:26.668Z,1.90
2023-06-17T15:53:30.060Z,1.60
2023-06-17T15:56:35.981Z,2.22
2023-06-17T15:59:39.335Z,1.90
2023-06-17T16:02:42.619Z,2.00
2023-06-17T16:05:45.667Z,2.22
2023-06-17T16:08:49.110Z,2.35
2023-06-17T16:11:52.147Z,1.80
2023-06-17T16:14:55.862Z,2.03
2023-06-17T16:17:59.123Z,2.42
2023-06-17T16:21:02.934Z,2.40
2023-06-17T16:24:06.383Z,2.10
2023-06-17T16:27:10.683Z,2.28
2023-06-17T16:30:13.776Z,2.30
2023-06-17T16:33:17.072Z,2.38
2023-06-17T16:36:20.714Z,2.58
2023-06-17T16:39:23.911Z,2.33
2023-06-17T16:42:27.943Z,2.20
2023-06-17T16:45:31.057Z,2.53
2023-06-17T16:48:34.593Z,2.30
2023-06-17T16:51:37.949Z,2.00
2023-06-17T16:54:41.533Z,2.25
2023-06-17T16:57:45.018Z,2.40
2023-06-17T17:00:48.120Z,1.93
2023-06-17T17:03:51.482Z,1.73
2023-06-17T17:06:54.735Z,2.20
2023-06-17T17:09:58.325Z,2.45
2023-06-17T17:13:01.732Z,2.42
2023-06-17T17:16:05.642Z,2.53
2023-06-17T17:19:08.903Z,2.28
2023-06-17T17:22:12.272Z,2.28
2023-06-17T17:25:16.311Z,2.35
2023-06-17T17:28:19.538Z,2.20
2023-06-17T17:31:22.768Z,1.93
2023-06-17T17:34:25.983Z,2.35
2023-06-17T17:37:29.353Z,2.08
2023-06-17T17:40:32.325Z,2.50
2023-06-17T17:43:35.774Z,2.08
2023-06-17T17:46:39.274Z,2.17
2023-06-17T17:49:42.796Z,2.58
2023-06-17T17:52:46.701Z,2.30
2023-06-17T17:55:49.932Z,2.33
2023-06-17T17:58:53.179Z,2.10
2023-06-17T18:01:56.346Z,2.10
2023-06-17T18:04:59.610Z,2.30
2023-06-17T18:08:02.972Z,2.20
2023-06-17T18:11:05.988Z,2.38
2023-06-17T18:14:09.119Z,2.17
2023-06-17T18:17:12.727Z,2.23
2023-06-17T18:20:15.917Z,2.53
2023-06-17T18:23:19.001Z,2.63
2023-06-17T18:26:22.672Z,3.05
2023-06-17T18:29:26.106Z,2.65
2023-06-17T18:32:29.154Z,2.20
2023-06-17T18:35:32.514Z,2.40
2023-06-17T18:38:35.767Z,2.35
2023-06-17T18:41:43.201Z,2.55
2023-06-17T18:44:46.652Z,2.58
2023-06-17T18:47:50.092Z,2.40
2023-06-17T18:50:53.323Z,2.45
2023-06-17T18:53:56.568Z,2.50
2023-06-17T18:56:59.904Z,2.88
2023-06-17T19:00:04.087Z,2.85
2023-06-17T19:03:08.964Z,3.30
2023-06-17T19:06:12.213Z,3.05
2023-06-17T19:09:15.439Z,2.90
2023-06-17T19:12:19.105Z,2.97
2023-06-17T19:15:22.463Z,3.25
2023-06-17T19:18:34.030Z,2.70
2023-06-17T19:21:37.037Z,2.92
2023-06-17T19:24:40.252Z,2.90
2023-06-17T19:27:43.337Z,2.80
2023-06-17T19:30:48.286Z,2.88
2023-06-17T19:33:51.239Z,3.20
2023-06-17T19:36:55.410Z,2.88
2023-06-17T19:39:58.749Z,2.85
2023-06-17T19:43:02.042Z,2.92
2023-06-17T19:46:05.385Z,3.10
2023-06-17T19:49:08.489Z,3.57
2023-06-17T19:52:11.837Z,3.30
2023-06-17T19:55:16.196Z,2.97
2023-06-17T19:58:19.738Z,3.00
2023-06-17T20:01:24.443Z,3.30
2023-06-17T20:04:28.280Z,3.63
2023-06-17T20:07:31.567Z,3.83
2023-06-17T20:10:38.788Z,3.95
2023-06-17T20:13:41.879Z,3.40
2023-06-17T20:16:45.990Z,3.92
2023-06-17T20:19:49.401Z,3.90
2023-06-17T20:22:53.167Z,3.38
2023-06-17T20:25:56.487Z,3.13
2023-06-17T20:28:59.665Z,3.65
2023-06-17T20:32:02.992Z,3.60
2023-06-17T20:35:06.532Z,3.43
2023-06-17T20:38:10.155Z,3.10
2023-06-17T20:41:16.663Z,3.35
2023-06-17T20:44:19.927Z,2.90
2023-06-17T20:47:24.162Z,2.83
2023-06-17T20:50:28.076Z,3.07
2023-06-17T20:53:31.312Z,3.45
2023-06-17T20:56:37.444Z,2.67
2023-06-17T20:59:40.816Z,2.72
2023-06-17T21:02:44.374Z,3.03
2023-06-17T21:05:47.972Z,2.53
2023-06-17T21:08:51.350Z,2.70
2023-06-17T21:11:54.814Z,2.85
2023-06-17T21:14:57.824Z,4.20
2023-06-17T21:18:01.392Z,2.45
2023-06-17T21:21:04.561Z,2.80
2023-06-17T21:24:07.874Z,2.60
2023-06-17T21:27:12.243Z,2.70
2023-06-17T21:30:15.830Z,2.50
2023-06-17T21:33:20.170Z,2.80
2023-06-17T21:36:23.348Z,2.93
2023-06-17T21:39:26.820Z,2.60
2023-06-17T21:42:29.915Z,2.53
2023-06-17T21:45:33.144Z,2.42
2023-06-17T21:48:36.555Z,2.60
2023-06-17T21:51:39.947Z,2.70
2023-06-17T21:54:42.978Z,2.45
2023-06-17T21:57:46.148Z,2.72
2023-06-17T22:00:50.666Z,2.40
2023-06-17T22:03:53.770Z,2.70
2023-06-17T22:06:57.103Z,2.43
2023-06-17T22:10:00.228Z,2.22
2023-06-17T22:13:03.643Z,2.90
2023-06-17T22:16:07.183Z,2.58
2023-06-17T22:19:10.085Z,2.80
2023-06-17T22:22:13.482Z,2.67
2023-06-17T22:25:16.714Z,2.70
2023-06-17T22:28:19.840Z,3.00
2023-06-17T22:31:23.243Z,2.47
2023-06-17T22:34:26.436Z,2.22
2023-06-17T22:37:29.784Z,2.20
2023-06-17T22:40:35.789Z,2.45
2023-06-17T22:43:38.801Z,2.17
2023-06-17T22:46:42.396Z,2.13
2023-06-17T22:49:46.676Z,2.55
2023-06-17T22:52:50.413Z,2.33
2023-06-17T22:55:53.404Z,2.55
2023-06-17T22:58:56.665Z,2.53
2023-06-17T23:02:02.239Z,2.35
2023-06-17T23:05:06.101Z,2.63
2023-06-17T23:08:09.006Z,2.20
2023-06-17T23:11:12.134Z,2.33
2023-06-17T23:14:14.955Z,2.85
2023-06-17T23:17:18.263Z,2.55
2023-06-17T23:20:21.386Z,2.20
2023-06-17T23:23:24.584Z,2.80
2023-06-17T23:26:27.968Z,2.45
2023-06-17T23:29:31.338Z,2.42
2023-06-17T23:32:34.693Z,2.35
2023-06-17T23:35:38.055Z,2.47
2023-06-17T23:38:41.800Z,2.43
2023-06-17T23:41:45.097Z,2.47
2023-06-17T23:44:49.678Z,2.70
2023-06-17T23:47:53.423Z,2.17
2023-06-17T23:50:56.935Z,3.28
2023-06-17T23:54:01.612Z,2.07
2023-06-17T23:57:05.825Z,2.70
